Time;durP1;ratioP1;P1;durP2;ratioP2;P2;SDS_P1;SDS_P2;PMS_P1;PMS_P2;Temp;Humidity;BMP_temperature;BMP_pressure;BME280_temperature;BME280_humidity;BME280_pressure;Samples;Min_cycle;Max_cycle;Signal;HPM_P1;HPM_P2
2021/09/26 00:01:12;;;;;;;17.95;3.00;;;;;;;;;;10454421;28;20090;-94
2021/09/26 00:06:12;;;;;;;8.87;2.83;;;;;;;;;;10461434;28;20043;-95
2021/09/26 00:11:13;;;;;;;12.27;3.03;;;;;;;;;;10430112;28;20032;-94
2021/09/26 00:16:14;;;;;;;10.07;2.65;;;;;;;;;;10463852;28;20534;-94
2021/09/26 00:21:15;;;;;;;5.15;2.50;;;;;;;;;;10462701;28;20031;-94
2021/09/26 00:26:16;;;;;;;7.00;2.50;;;;;;;;;;10461119;28;20462;-94
2021/09/26 00:31:16;;;;;;;7.03;3.27;;;;;;;;;;10461208;28;20041;-93
2021/09/26 00:36:16;;;;;;;3.07;2.63;;;;;;;;;;10458450;28;20112;-94
2021/09/26 00:41:17;;;;;;;5.27;2.77;;;;;;;;;;10449555;28;20459;-93
2021/09/26 00:46:17;;;;;;;4.22;2.55;;;;;;;;;;10428452;28;20392;-94
2021/09/26 00:51:18;;;;;;;4.50;2.43;;;;;;;;;;10393130;28;20029;-94
2021/09/26 00:56:19;;;;;;;3.90;2.88;;;;;;;;;;10400538;28;20136;-94
2021/09/26 01:01:19;;;;;;;6.40;3.05;;;;;;;;;;10419227;28;20040;-94
2021/09/26 01:06:44;;;;;;;2.90;2.60;;;;;;;;;;10417912;28;20107;-94
2021/09/26 01:11:50;;;;;;;2.90;2.63;;;;;;;;;;10417332;28;20108;-93
2021/09/26 01:17:07;;;;;;;8.15;3.28;;;;;;;;;;10418088;28;20033;-94
2021/09/26 01:22:16;;;;;;;5.68;2.78;;;;;;;;;;10416274;28;20422;-93
2021/09/26 01:27:43;;;;;;;4.55;2.88;;;;;;;;;;10399798;28;20064;-90
2021/09/26 01:32:55;;;;;;;7.88;3.00;;;;;;;;;;10417345;28;20049;-94
2021/09/26 01:38:10;;;;;;;11.30;3.17;;;;;;;;;;10417875;28;20108;-94
2021/09/26 01:43:15;;;;;;;3.97;2.40;;;;;;;;;;10416194;28;20052;-93
2021/09/26 01:48:23;;;;;;;6.38;2.85;;;;;;;;;;10399496;28;20103;-94
2021/09/26 01:53:25;;;;;;;5.43;2.95;;;;;;;;;;10429919;28;20033;-92
2021/09/26 01:58:25;;;;;;;4.28;2.95;;;;;;;;;;10414687;28;20037;-93
2021/09/26 02:03:26;;;;;;;4.70;2.70;;;;;;;;;;10448212;28;20037;-92
2021/09/26 02:08:26;;;;;;;3.58;2.33;;;;;;;;;;10415264;28;20052;-93
2021/09/26 02:13:28;;;;;;;7.28;2.70;;;;;;;;;;10415154;28;20076;-93
2021/09/26 02:18:29;;;;;;;5.45;2.80;;;;;;;;;;10414878;28;20470;-92
2021/09/26 02:23:30;;;;;;;5.00;2.50;;;;;;;;;;10398149;28;20029;-93
2021/09/26 02:28:31;;;;;;;3.70;2.78;;;;;;;;;;10414746;28;20391;-93
2021/09/26 02:33:35;;;;;;;5.28;3.08;;;;;;;;;;10414164;28;20476;-91
2021/09/26 02:38:36;;;;;;;6.35;2.78;;;;;;;;;;10413720;28;20051;-92
2021/09/26 02:43:43;;;;;;;7.50;2.85;;;;;;;;;;10414062;28;20047;-91
2021/09/26 02:48:44;;;;;;;3.05;2.75;;;;;;;;;;10414211;28;20045;-90
2021/09/26 02:53:44;;;;;;;3.35;2.78;;;;;;;;;;10412752;28;20025;-91
2021/09/26 02:58:45;;;;;;;3.70;2.55;;;;;;;;;;10396624;28;20036;-92
2021/09/26 03:03:45;;;;;;;2.92;2.28;;;;;;;;;;10398178;28;20057;-92
2021/09/26 03:08:45;;;;;;;8.40;2.80;;;;;;;;;;10396564;28;20106;-92
2021/09/26 03:13:46;;;;;;;2.97;2.63;;;;;;;;;;10396792;28;20053;-90
2021/09/26 03:18:46;;;;;;;3.67;2.60;;;;;;;;;;10416087;28;20030;-90
2021/09/26 03:23:47;;;;;;;2.87;2.33;;;;;;;;;;10420490;28;20959;-90
2021/09/26 03:28:47;;;;;;;3.60;2.40;;;;;;;;;;10422004;28;20080;-89
2021/09/26 03:33:47;;;;;;;4.10;2.70;;;;;;;;;;10421842;28;20562;-92
2021/09/26 03:38:48;;;;;;;2.63;2.40;;;;;;;;;;10422010;28;20029;-92
2021/09/26 03:43:49;;;;;;;2.73;2.40;;;;;;;;;;10419642;28;20451;-91
2021/09/26 03:48:50;;;;;;;3.17;2.88;;;;;;;;;;10420044;28;20034;-90
2021/09/26 03:53:50;;;;;;;3.55;2.60;;;;;;;;;;10421178;28;20496;-90
2021/09/26 03:58:51;;;;;;;3.40;2.60;;;;;;;;;;10420969;28;20064;-90
2021/09/26 04:03:51;;;;;;;3.42;2.78;;;;;;;;;;10419702;28;20029;-93
2021/09/26 04:08:52;;;;;;;4.27;2.77;;;;;;;;;;10420503;28;20044;-93
2021/09/26 04:13:52;;;;;;;5.27;2.80;;;;;;;;;;10420765;28;20041;-93
2021/09/26 04:18:52;;;;;;;5.93;2.13;;;;;;;;;;10405206;28;20486;-91
2021/09/26 04:23:53;;;;;;;3.80;2.73;;;;;;;;;;10420033;28;20022;-91
2021/09/26 04:28:53;;;;;;;2.58;2.17;;;;;;;;;;10405735;28;20060;-91
2021/09/26 04:33:54;;;;;;;3.00;2.57;;;;;;;;;;10418155;28;20048;-91
2021/09/26 04:38:54;;;;;;;2.60;2.40;;;;;;;;;;10417529;28;20021;-90
2021/09/26 04:43:54;;;;;;;2.63;2.43;;;;;;;;;;10420939;28;20081;-89
2021/09/26 04:48:55;;;;;;;3.93;2.77;;;;;;;;;;10453378;28;20037;-91
2021/09/26 04:53:55;;;;;;;4.07;2.57;;;;;;;;;;10418586;28;20032;-91
2021/09/26 04:58:56;;;;;;;3.00;2.60;;;;;;;;;;10417806;28;20025;-90
2021/09/26 05:03:56;;;;;;;3.00;2.70;;;;;;;;;;10417819;28;20026;-92
2021/09/26 05:08:56;;;;;;;2.50;2.30;;;;;;;;;;10418004;28;20021;-92
2021/09/26 05:13:57;;;;;;;2.67;2.40;;;;;;;;;;10418287;28;20378;-91
2021/09/26 05:18:57;;;;;;;2.60;2.03;;;;;;;;;;10391064;28;20049;-92
2021/09/26 05:23:57;;;;;;;2.87;2.50;;;;;;;;;;10417130;28;20487;-92
2021/09/26 05:28:58;;;;;;;2.40;2.20;;;;;;;;;;10415645;28;20419;-92
2021/09/26 05:33:59;;;;;;;3.15;2.50;;;;;;;;;;10416171;28;20075;-93
2021/09/26 05:38:59;;;;;;;3.13;2.88;;;;;;;;;;10416617;28;20052;-93
2021/09/26 05:43:59;;;;;;;3.67;3.08;;;;;;;;;;10416470;28;20108;-92
2021/09/26 05:49:00;;;;;;;5.00;4.60;;;;;;;;;;10416970;28;20029;-93
2021/09/26 05:54:00;;;;;;;4.47;4.10;;;;;;;;;;10416506;28;20025;-92
2021/09/26 05:59:01;;;;;;;3.23;2.80;;;;;;;;;;10415455;28;20108;-93
2021/09/26 06:04:01;;;;;;;3.00;2.57;;;;;;;;;;10415771;28;20581;-93
2021/09/26 06:09:01;;;;;;;2.90;2.60;;;;;;;;;;10414509;28;20021;-92
2021/09/26 06:14:02;;;;;;;2.85;2.65;;;;;;;;;;10398188;28;20021;-92
2021/09/26 06:19:02;;;;;;;2.77;2.53;;;;;;;;;;10416067;28;20040;-89
2021/09/26 06:24:03;;;;;;;3.00;2.47;;;;;;;;;;10415675;28;20029;-90
2021/09/26 06:29:03;;;;;;;2.92;2.60;;;;;;;;;;10413505;28;20071;-90
2021/09/26 06:34:05;;;;;;;2.83;2.55;;;;;;;;;;10414152;28;20084;-92
2021/09/26 06:39:05;;;;;;;3.08;2.78;;;;;;;;;;10426667;28;20494;-90
2021/09/26 06:44:05;;;;;;;3.17;2.88;;;;;;;;;;10415512;28;20112;-92
2021/09/26 06:49:06;;;;;;;4.40;2.70;;;;;;;;;;10413521;28;20040;-93
2021/09/26 06:54:06;;;;;;;3.75;2.85;;;;;;;;;;10432943;28;20021;-91
2021/09/26 06:59:07;;;;;;;4.40;2.70;;;;;;;;;;10421451;28;20022;-92
2021/09/26 07:04:07;;;;;;;3.10;2.90;;;;;;;;;;10423660;28;20037;-92
2021/09/26 07:09:08;;;;;;;2.63;2.43;;;;;;;;;;10421911;28;20464;-91
2021/09/26 07:14:08;;;;;;;3.17;2.90;;;;;;;;;;10422035;28;20793;-91
2021/09/26 07:19:09;;;;;;;3.57;3.10;;;;;;;;;;10421251;28;20482;-91
2021/09/26 07:24:10;;;;;;;2.88;2.67;;;;;;;;;;10421041;28;20472;-92
2021/09/26 07:29:10;;;;;;;2.78;2.58;;;;;;;;;;10422149;28;20037;-91
2021/09/26 07:34:10;;;;;;;2.80;2.60;;;;;;;;;;10422119;28;20479;-91
2021/09/26 07:39:11;;;;;;;3.60;2.55;;;;;;;;;;10420646;28;20049;-90
2021/09/26 07:44:11;;;;;;;3.40;3.10;;;;;;;;;;10392337;23;20057;-89
2021/09/26 07:49:12;;;;;;;3.30;3.00;;;;;;;;;;10379657;28;20029;-89
2021/09/26 07:54:16;;;;;;;2.92;2.55;;;;;;;;;;10378712;28;20029;-92
2021/09/26 07:59:19;;;;;;;3.55;2.88;;;;;;;;;;10379328;28;20113;-88
2021/09/26 08:04:19;;;;;;;3.08;2.88;;;;;;;;;;10376381;28;20034;-90
2021/09/26 08:09:20;;;;;;;3.17;2.90;;;;;;;;;;10378866;28;20026;-91
2021/09/26 08:14:21;;;;;;;6.50;2.80;;;;;;;;;;10378168;28;20444;-89
2021/09/26 08:19:22;;;;;;;3.13;2.83;;;;;;;;;;10377609;28;20026;-89
2021/09/26 08:24:23;;;;;;;5.60;2.70;;;;;;;;;;10378960;28;20380;-90
2021/09/26 08:29:23;;;;;;;5.80;3.13;;;;;;;;;;10378402;28;20034;-91
2021/09/26 08:34:24;;;;;;;3.03;2.80;;;;;;;;;;10377808;28;20026;-89
2021/09/26 08:39:24;;;;;;;2.83;2.63;;;;;;;;;;10378446;28;20030;-90
2021/09/26 08:44:26;;;;;;;9.07;3.30;;;;;;;;;;10378246;28;20042;-89
2021/09/26 08:49:27;;;;;;;3.38;2.80;;;;;;;;;;10377585;28;20055;-90
2021/09/26 08:54:27;;;;;;;2.85;2.65;;;;;;;;;;10378042;28;20044;-91
2021/09/26 08:59:28;;;;;;;14.60;4.37;;;;;;;;;;10377718;28;20030;-84
2021/09/26 09:04:39;;;;;;;9.27;7.93;;;;;;;;;;10376196;28;20495;-83
2021/09/26 09:09:51;;;;;;;16.17;8.65;;;;;;;;;;10375086;28;20029;-83
2021/09/26 09:15:00;;;;;;;13.85;11.27;;;;;;;;;;10375366;28;20067;-83
2021/09/26 09:20:22;;;;;;;16.15;10.88;;;;;;;;;;10372132;28;20416;-82
2021/09/26 09:25:39;;;;;;;11.73;5.20;;;;;;;;;;10373865;28;20387;-83
2021/09/26 09:30:40;;;;;;;10.95;7.28;;;;;;;;;;10396720;28;20021;-82
2021/09/26 09:35:45;;;;;;;9.20;7.32;;;;;;;;;;10374439;28;20034;-82
2021/09/26 09:40:50;;;;;;;16.70;10.93;;;;;;;;;;10371728;28;20499;-83
2021/09/26 09:45:53;;;;;;;10.40;6.47;;;;;;;;;;10373621;28;20172;-83
2021/09/26 09:50:59;;;;;;;6.53;5.32;;;;;;;;;;10375346;28;20419;-82
2021/09/26 09:56:17;;;;;;;11.07;5.03;;;;;;;;;;10390588;28;20026;-82
2021/09/26 10:01:29;;;;;;;5.47;4.07;;;;;;;;;;10374611;28;20160;-82
2021/09/26 10:06:43;;;;;;;6.00;4.80;;;;;;;;;;10373595;28;20022;-83
2021/09/26 10:11:48;;;;;;;8.88;6.35;;;;;;;;;;10375800;28;20495;-83
2021/09/26 10:16:49;;;;;;;5.70;5.07;;;;;;;;;;10374833;28;20404;-86
2021/09/26 10:21:52;;;;;;;4.88;4.18;;;;;;;;;;10373671;28;20026;-85
2021/09/26 10:26:53;;;;;;;5.75;4.30;;;;;;;;;;10374062;28;20062;-83
2021/09/26 10:31:55;;;;;;;6.60;4.18;;;;;;;;;;10374911;28;20076;-83
2021/09/26 10:36:56;;;;;;;7.13;6.13;;;;;;;;;;10373775;28;20034;-83
2021/09/26 10:42:11;;;;;;;12.70;8.50;;;;;;;;;;10372404;28;20368;-83
2021/09/26 10:47:17;;;;;;;5.07;4.43;;;;;;;;;;10375099;28;20043;-82
2021/09/26 10:52:59;;;;;;;6.65;4.60;;;;;;;;;;10374401;28;20034;-83
2021/09/26 10:58:05;;;;;;;5.95;4.75;;;;;;;;;;10232470;29;20117;-83
2021/09/26 11:03:06;;;;;;;5.20;4.70;;;;;;;;;;10248301;29;20122;-84
2021/09/26 11:08:13;;;;;;;8.63;5.10;;;;;;;;;;10248594;29;20050;-83
2021/09/26 11:13:21;;;;;;;6.45;4.95;;;;;;;;;;10247848;29;20143;-83
2021/09/26 11:18:51;;;;;;;;;;;;;;;;;;10248427;29;20039;-84
2021/09/26 11:23:59;;;;;;;6.93;6.13;;;;;;;;;;10231736;29;20020;-83
2021/09/26 11:29:00;;;;;;;12.33;8.20;;;;;;;;;;10245415;28;20042;-84
2021/09/26 11:34:00;;;;;;;8.95;5.32;;;;;;;;;;10372667;28;20489;-83
2021/09/26 11:39:23;;;;;;;6.70;5.27;;;;;;;;;;10373582;28;20030;-83
2021/09/26 11:44:24;;;;;;;8.57;4.50;;;;;;;;;;10383256;28;20973;-83
2021/09/26 11:49:25;;;;;;;22.10;8.13;;;;;;;;;;10380414;28;20033;-85
2021/09/26 11:54:28;;;;;;;7.50;5.82;;;;;;;;;;10380086;28;20036;-83
2021/09/26 11:59:37;;;;;;;15.63;8.70;;;;;;;;;;10378624;28;20034;-84
2021/09/26 12:04:38;;;;;;;14.20;9.50;;;;;;;;;;10378185;28;20056;-84
2021/09/26 12:09:44;;;;;;;13.75;10.52;;;;;;;;;;10377399;28;20033;-84
2021/09/26 12:14:48;;;;;;;14.60;8.65;;;;;;;;;;10387907;28;20029;-83
2021/09/26 12:19:48;;;;;;;15.70;9.10;;;;;;;;;;10377398;28;20033;-83
2021/09/26 12:24:57;;;;;;;11.80;8.93;;;;;;;;;;10377945;28;20030;-83
2021/09/26 12:30:13;;;;;;;10.40;6.82;;;;;;;;;;10377887;28;20391;-84
2021/09/26 12:35:26;;;;;;;13.07;7.38;;;;;;;;;;10378858;28;20026;-83
2021/09/26 12:40:31;;;;;;;10.70;5.70;;;;;;;;;;10377703;28;20026;-83
2021/09/26 12:45:40;;;;;;;14.52;8.63;;;;;;;;;;10393134;28;20042;-83
2021/09/26 12:50:45;;;;;;;11.20;6.90;;;;;;;;;;10376550;28;20049;-83
2021/09/26 12:55:46;;;;;;;9.32;6.90;;;;;;;;;;10380708;28;20037;-83
2021/09/26 13:00:48;;;;;;;8.50;5.55;;;;;;;;;;10376651;28;20076;-83
2021/09/26 13:05:58;;;;;;;8.30;4.85;;;;;;;;;;10375682;28;20037;-83
2021/09/26 13:11:21;;;;;;;9.15;5.40;;;;;;;;;;10385026;28;20029;-83
2021/09/26 13:16:31;;;;;;;5.40;4.72;;;;;;;;;;10367697;28;20476;-84
2021/09/26 13:21:35;;;;;;;6.10;4.72;;;;;;;;;;10376652;28;20087;-83
2021/09/26 13:26:38;;;;;;;4.43;4.03;;;;;;;;;;10375956;28;20476;-83
2021/09/26 13:31:47;;;;;;;6.43;4.95;;;;;;;;;;10374886;28;20033;-84
2021/09/26 13:36:47;;;;;;;6.18;4.60;;;;;;;;;;10374001;28;20428;-84
2021/09/26 13:41:49;;;;;;;11.55;5.00;;;;;;;;;;10374409;28;20033;-84
2021/09/26 13:46:53;;;;;;;8.65;4.78;;;;;;;;;;10376609;28;20376;-85
2021/09/26 13:51:53;;;;;;;9.25;5.25;;;;;;;;;;10375531;28;20034;-85
2021/09/26 13:56:54;;;;;;;14.50;5.90;;;;;;;;;;10376220;28;20037;-84
2021/09/26 14:01:55;;;;;;;8.68;5.55;;;;;;;;;;10375483;28;20417;-84
2021/09/26 14:06:55;;;;;;;7.78;5.35;;;;;;;;;;10373971;28;20053;-85
2021/09/26 14:11:56;;;;;;;8.10;5.77;;;;;;;;;;10375161;28;20038;-85
2021/09/26 14:16:57;;;;;;;5.63;4.90;;;;;;;;;;10374541;28;20538;-85
2021/09/26 14:21:57;;;;;;;9.60;7.45;;;;;;;;;;10390744;28;20063;-85
2021/09/26 14:26:58;;;;;;;12.38;6.32;;;;;;;;;;10375771;28;20048;-85
2021/09/26 14:31:59;;;;;;;13.55;5.70;;;;;;;;;;10374802;28;20080;-85
2021/09/26 14:36:59;;;;;;;16.55;6.13;;;;;;;;;;10374069;28;20101;-84
2021/09/26 14:42:00;;;;;;;6.65;5.63;;;;;;;;;;10374013;28;20057;-85
2021/09/26 14:47:01;;;;;;;13.38;6.03;;;;;;;;;;10373982;28;20041;-84
2021/09/26 14:52:01;;;;;;;8.57;5.47;;;;;;;;;;10374911;28;20495;-85
2021/09/26 14:57:02;;;;;;;10.13;5.53;;;;;;;;;;10374683;28;20025;-87
2021/09/26 15:02:03;;;;;;;9.07;5.57;;;;;;;;;;10373330;28;20041;-86
2021/09/26 15:07:03;;;;;;;10.40;5.45;;;;;;;;;;10373668;28;20026;-86
2021/09/26 15:12:04;;;;;;;6.70;4.83;;;;;;;;;;10373583;28;20053;-86
2021/09/26 15:17:04;;;;;;;7.65;4.22;;;;;;;;;;10378763;28;20460;-86
2021/09/26 15:22:06;;;;;;;6.38;4.60;;;;;;;;;;10382049;28;20117;-87
2021/09/26 15:27:07;;;;;;;5.07;4.53;;;;;;;;;;10381677;28;20113;-87
2021/09/26 15:32:08;;;;;;;7.80;4.97;;;;;;;;;;10380682;28;20122;-88
2021/09/26 15:37:08;;;;;;;20.48;4.72;;;;;;;;;;10376927;28;20546;-89
2021/09/26 15:42:09;;;;;;;13.45;4.13;;;;;;;;;;10387636;28;20096;-89
2021/09/26 15:47:10;;;;;;;5.15;3.75;;;;;;;;;;10383639;28;20065;-90
2021/09/26 15:52:10;;;;;;;6.97;4.18;;;;;;;;;;10380094;28;20022;-89
2021/09/26 15:57:11;;;;;;;4.25;3.85;;;;;;;;;;10390667;28;20105;-88
2021/09/26 16:02:11;;;;;;;7.78;4.13;;;;;;;;;;10384582;28;20026;-88
2021/09/26 16:07:12;;;;;;;6.33;4.07;;;;;;;;;;10381156;28;20025;-88
2021/09/26 16:12:12;;;;;;;7.35;4.10;;;;;;;;;;10375359;28;20835;-88
2021/09/26 16:17:13;;;;;;;4.50;3.70;;;;;;;;;;10380009;28;20032;-88
2021/09/26 16:22:13;;;;;;;5.57;3.67;;;;;;;;;;10383035;28;20033;-88
2021/09/26 16:27:14;;;;;;;6.47;3.67;;;;;;;;;;10383126;28;20472;-88
2021/09/26 16:32:14;;;;;;;5.47;3.97;;;;;;;;;;10382670;28;20087;-90
2021/09/26 16:37:15;;;;;;;4.50;3.60;;;;;;;;;;10384493;28;20435;-88
2021/09/26 16:42:15;;;;;;;5.70;3.58;;;;;;;;;;10380046;28;20076;-88
2021/09/26 16:47:16;;;;;;;5.57;3.45;;;;;;;;;;10387314;28;20030;-88
2021/09/26 16:52:17;;;;;;;4.45;3.47;;;;;;;;;;10379551;28;20124;-87
2021/09/26 16:57:17;;;;;;;3.50;3.20;;;;;;;;;;10375641;28;20204;-89
2021/09/26 17:02:18;;;;;;;4.97;4.03;;;;;;;;;;10376923;28;20025;-88
2021/09/26 17:07:18;;;;;;;6.07;4.10;;;;;;;;;;10377675;28;20040;-90
2021/09/26 17:12:19;;;;;;;4.05;3.53;;;;;;;;;;10357639;28;20475;-89
2021/09/26 17:17:20;;;;;;;4.10;3.53;;;;;;;;;;10373204;28;20032;-91
2021/09/26 17:22:21;;;;;;;6.95;3.63;;;;;;;;;;10373356;28;20471;-90
2021/09/26 17:27:21;;;;;;;4.73;3.63;;;;;;;;;;10368786;28;20049;-90
2021/09/26 17:32:21;;;;;;;4.20;3.80;;;;;;;;;;10375712;28;20791;-89
2021/09/26 17:37:22;;;;;;;4.83;4.00;;;;;;;;;;10376374;28;20111;-89
2021/09/26 17:42:22;;;;;;;5.73;3.73;;;;;;;;;;10374023;28;20046;-89
2021/09/26 17:47:23;;;;;;;6.77;3.53;;;;;;;;;;10375317;28;20042;-89
2021/09/26 17:52:23;;;;;;;4.88;3.88;;;;;;;;;;10372383;28;20479;-87
2021/09/26 17:57:24;;;;;;;7.90;3.90;;;;;;;;;;10367875;28;20384;-88
2021/09/26 18:02:24;;;;;;;8.07;3.70;;;;;;;;;;10371017;28;20080;-88
2021/09/26 18:07:24;;;;;;;4.47;3.67;;;;;;;;;;10371060;28;20038;-87
2021/09/26 18:12:25;;;;;;;6.00;3.90;;;;;;;;;;10367268;28;20452;-87
2021/09/26 18:17:25;;;;;;;5.00;4.00;;;;;;;;;;10373916;28;20060;-87
2021/09/26 18:22:26;;;;;;;14.88;4.35;;;;;;;;;;10373848;28;20470;-87
2021/09/26 18:27:27;;;;;;;8.52;4.25;;;;;;;;;;10373241;28;20038;-87
2021/09/26 18:32:28;;;;;;;9.00;5.20;;;;;;;;;;10372493;28;20494;-87
2021/09/26 18:37:28;;;;;;;6.10;4.60;;;;;;;;;;10355997;28;20033;-87
2021/09/26 18:42:29;;;;;;;5.55;4.75;;;;;;;;;;10365447;28;20053;-84
2021/09/26 18:47:29;;;;;;;6.27;4.47;;;;;;;;;;10373328;28;20026;-87
2021/09/26 18:52:29;;;;;;;10.50;4.47;;;;;;;;;;10378364;28;20507;-87
2021/09/26 18:57:33;;;;;;;10.90;4.90;;;;;;;;;;10380636;28;20447;-88
2021/09/26 19:02:34;;;;;;;11.45;4.70;;;;;;;;;;10369847;28;20484;-87
2021/09/26 19:07:34;;;;;;;6.72;4.43;;;;;;;;;;10379854;28;20032;-87
2021/09/26 19:12:35;;;;;;;7.90;4.33;;;;;;;;;;10379946;28;20407;-87
2021/09/26 19:17:36;;;;;;;6.30;4.15;;;;;;;;;;10380758;28;20369;-88
2021/09/26 19:22:37;;;;;;;6.13;4.30;;;;;;;;;;10381387;28;20088;-87
2021/09/26 19:27:39;;;;;;;6.72;4.10;;;;;;;;;;10380461;28;20045;-86
2021/09/26 19:32:42;;;;;;;8.60;4.32;;;;;;;;;;10381712;28;20033;-86
2021/09/26 19:37:42;;;;;;;5.25;4.28;;;;;;;;;;10380002;28;20026;-87
2021/09/26 19:42:43;;;;;;;6.32;4.20;;;;;;;;;;10397266;23;20057;-86
2021/09/26 19:47:44;;;;;;;5.72;3.67;;;;;;;;;;10421177;28;20614;-86
2021/09/26 19:52:44;;;;;;;12.60;4.13;;;;;;;;;;10421636;28;20148;-90
2021/09/26 19:57:45;;;;;;;11.52;4.63;;;;;;;;;;10421513;28;20065;-88
2021/09/26 20:02:52;;;;;;;7.15;4.00;;;;;;;;;;10420320;28;20039;-90
2021/09/26 20:07:53;;;;;;;6.57;4.05;;;;;;;;;;10414918;28;20026;-88
2021/09/26 20:12:54;;;;;;;8.43;4.30;;;;;;;;;;10419056;28;20063;-89
2021/09/26 20:17:54;;;;;;;8.65;3.95;;;;;;;;;;10419168;28;20025;-94
2021/09/26 20:22:55;;;;;;;7.63;4.05;;;;;;;;;;10417928;28;20025;-91
2021/09/26 20:27:57;;;;;;;9.68;4.05;;;;;;;;;;10400310;28;20107;-90
2021/09/26 20:32:57;;;;;;;13.20;4.60;;;;;;;;;;10419080;28;20029;-91
2021/09/26 20:37:57;;;;;;;10.77;4.70;;;;;;;;;;10419689;28;20030;-91
2021/09/26 20:42:59;;;;;;;9.53;4.60;;;;;;;;;;10418570;28;20065;-92
2021/09/26 20:48:00;;;;;;;14.95;4.28;;;;;;;;;;10400482;28;20459;-93
2021/09/26 20:53:01;;;;;;;8.97;4.70;;;;;;;;;;10418011;28;20034;-94
2021/09/26 20:58:02;;;;;;;13.10;4.97;;;;;;;;;;10417637;28;20060;-94
2021/09/26 21:03:04;;;;;;;7.57;4.25;;;;;;;;;;10401236;28;20068;-94
2021/09/26 21:08:04;;;;;;;14.90;5.32;;;;;;;;;;10400657;28;20029;-94
2021/09/26 21:13:06;;;;;;;12.57;5.00;;;;;;;;;;10400148;28;20025;-93
2021/09/26 21:18:07;;;;;;;15.63;4.75;;;;;;;;;;10401040;28;20032;-94
2021/09/26 21:23:08;;;;;;;11.15;5.07;;;;;;;;;;10417347;28;20041;-94
2021/09/26 21:28:08;;;;;;;5.95;4.60;;;;;;;;;;10400504;28;20112;-94
2021/09/26 21:33:10;;;;;;;7.75;5.30;;;;;;;;;;10400735;28;20026;-94
2021/09/26 21:38:11;;;;;;;9.88;5.38;;;;;;;;;;10400031;28;20057;-94
2021/09/26 21:43:12;;;;;;;7.05;5.18;;;;;;;;;;10417492;28;20046;-94
2021/09/26 21:48:12;;;;;;;7.38;4.63;;;;;;;;;;10399853;28;20136;-93
2021/09/26 21:53:14;;;;;;;8.15;5.28;;;;;;;;;;10416952;28;20129;-95
2021/09/26 21:58:15;;;;;;;7.93;5.03;;;;;;;;;;10400344;28;20037;-95
2021/09/26 22:03:21;;;;;;;7.00;5.05;;;;;;;;;;10415371;28;20464;-91
2021/09/26 22:08:23;;;;;;;12.45;6.13;;;;;;;;;;10415833;28;20069;-93
2021/09/26 22:13:25;;;;;;;13.93;5.88;;;;;;;;;;10395411;28;20029;-94
2021/09/26 22:18:26;;;;;;;13.60;5.90;;;;;;;;;;10383726;28;20052;-93
2021/09/26 22:23:33;;;;;;;11.85;5.35;;;;;;;;;;10388975;28;20044;-82
2021/09/26 22:28:34;;;;;;;10.98;5.63;;;;;;;;;;10411607;28;20033;-82
2021/09/26 22:33:35;;;;;;;9.90;5.53;;;;;;;;;;10412899;28;20116;-82
2021/09/26 22:38:37;;;;;;;11.45;4.82;;;;;;;;;;10412531;28;20128;-81
2021/09/26 22:43:37;;;;;;;10.30;5.20;;;;;;;;;;10414253;28;20121;-82
2021/09/26 22:48:38;;;;;;;7.60;4.93;;;;;;;;;;10414727;28;20825;-82
2021/09/26 22:53:38;;;;;;;11.70;5.32;;;;;;;;;;10414770;28;20068;-82
2021/09/26 22:58:39;;;;;;;7.20;4.45;;;;;;;;;;10415347;28;20116;-82
2021/09/26 23:03:41;;;;;;;11.98;5.22;;;;;;;;;;10414771;28;20025;-82
2021/09/26 23:08:42;;;;;;;12.07;4.97;;;;;;;;;;10413593;28;20029;-82
2021/09/26 23:13:43;;;;;;;10.57;4.80;;;;;;;;;;10413933;28;20475;-83
2021/09/26 23:18:44;;;;;;;10.25;5.05;;;;;;;;;;10414911;28;20037;-82
2021/09/26 23:23:44;;;;;;;9.13;5.13;;;;;;;;;;10413326;28;20040;-82
2021/09/26 23:28:45;;;;;;;6.65;4.40;;;;;;;;;;10414881;28;20034;-84
2021/09/26 23:33:46;;;;;;;6.03;4.68;;;;;;;;;;10414567;28;20041;-82
2021/09/26 23:38:46;;;;;;;7.57;5.40;;;;;;;;;;10419998;28;20116;-82
2021/09/26 23:43:50;;;;;;;7.40;4.70;;;;;;;;;;10420921;28;20517;-82
2021/09/26 23:48:52;;;;;;;5.80;4.68;;;;;;;;;;10421269;28;20462;-82
2021/09/26 23:53:53;;;;;;;5.97;4.80;;;;;;;;;;10421121;28;20029;-83
2021/09/26 23:58:54;;;;;;;9.48;4.60;;;;;;;;;;10419881;28;20041;-82
